Weather at Valesdir Airport

Public forecast

Using degrees Celsius for public forecast. Weather courtesy of forecast.io.

Closest aviation weather report (METAR) to Valesdir Airport

Report is more than 6 hours old.

Closest report is Lamap Airport, 28.4 nm (52.5 km) NW. Retrieved 2020/08/12 23:00 UTC (1 year ago):

NVSL 122300Z NI

Closest aviation forecast (TAF) to Valesdir Airport

Closest forecast is Lamap Airport, 28.4 nm (52.5 km) NW. Retrieved 2022-01-17 00:22 UTC (3 hours ago):

TAF NVSL 162220Z 1700/1724 13006KT 9999 SCT020 INTER 1700/1706 9000 SHRA BKN018